Dati Storici

Data ora Umidita' aria (%) Temperatura aria (°C) Rad globale (W/m²) Gonioanemometro (°) Tacoanemometro (m/s) Pioggia (mm)
05-06-2020 08:10 90.4 % 19.115 -58.967 0.879 0 0
05-06-2020 08:00 94.1 % 18.126 -75.24 0.842 0 0
05-06-2020 07:50 97.4 % 17.798 -67.488 1.847 0 0
05-06-2020 07:40 96.9 % 17.605 -59.665 3.689 0 0
05-06-2020 07:30 97.7 % 17.742 -68.563 1.695 0 0
05-06-2020 07:20 97.7 % 17.38 -65.523 2.61 0 0
05-06-2020 07:10 97.7 % 17.372 -71.045 1.904 0 0
05-06-2020 07:00 97.7 % 16.912 -67.894 1.303 0 0
05-06-2020 06:50 97.7 % 16.851 -66.112 1.111 0 0
05-06-2020 06:40 97.7 % 16.726 -60.459 1.991 0 0
05-06-2020 06:30 97.8 % 16.641 -70.687 1.507 0 0
05-06-2020 06:20 97.7 % 16.814 -61.645 2.121 0 0
05-06-2020 06:10 97.7 % 16.856 -68.234 1.026 0 0
05-06-2020 06:00 97.7 % 16.845 -67.074 1.394 0 0
05-06-2020 05:50 97.7 % 16.828 -66.903 2.813 0 0
05-06-2020 05:40 97.8 % 16.843 -68.321 0.918 0 0
05-06-2020 05:30 97.8 % 16.92 -72.321 0.347 0 0
05-06-2020 05:20 97.8 % 16.436 -70.083 1.527 0 0
05-06-2020 05:10 97.8 % 16.526 -69.348 1.351 0 0
05-06-2020 05:00 97.8 % 16.489 -67.049 1.52 0 0

I dati sono presentati in modo automatico a scopo informativo. In seguito a verifica i dati possono subire modifiche o essere invalidati e non riportati negli archivi definitivi.